createdAt,value
2023-04-19T00:02:13.304Z,6.18
2023-04-19T00:06:15.108Z,6.20
2023-04-19T00:10:16.799Z,6.24
2023-04-19T00:14:18.397Z,6.18
2023-04-19T00:18:20.090Z,6.30
2023-04-19T00:22:21.865Z,6.33
2023-04-19T00:26:23.331Z,6.08
2023-04-19T00:30:24.763Z,6.22
2023-04-19T00:34:26.223Z,6.20
2023-04-19T00:38:27.643Z,6.13
2023-04-19T00:42:29.099Z,6.11
2023-04-19T00:46:30.865Z,5.94
2023-04-19T00:50:32.349Z,6.04
2023-04-19T00:54:34.135Z,5.90
2023-04-19T00:58:37.691Z,6.11
2023-04-19T01:02:39.225Z,5.99
2023-04-19T01:06:41.908Z,5.89
2023-04-19T01:10:43.319Z,5.93
2023-04-19T01:14:44.725Z,5.89
2023-04-19T01:18:46.172Z,5.83
2023-04-19T01:22:47.614Z,5.80
2023-04-19T01:26:49.026Z,5.74
2023-04-19T01:30:54.542Z,5.79
2023-04-19T01:34:56.043Z,5.67
2023-04-19T01:38:57.505Z,5.56
2023-04-19T01:42:58.976Z,5.38
2023-04-19T01:47:00.581Z,5.40
2023-04-19T01:51:02.122Z,5.36
2023-04-19T01:55:05.315Z,5.23
2023-04-19T01:59:06.725Z,5.22
2023-04-19T02:03:08.294Z,5.21
2023-04-19T02:07:09.846Z,5.08
2023-04-19T02:11:14.479Z,5.05
2023-04-19T02:15:15.902Z,4.98
2023-04-19T02:19:17.970Z,5.09
2023-04-19T02:23:19.380Z,4.87
2023-04-19T02:27:20.839Z,4.71
2023-04-19T02:31:22.681Z,4.68
2023-04-19T02:35:24.152Z,4.69
2023-04-19T02:39:25.667Z,4.70
2023-04-19T02:43:27.216Z,4.55
2023-04-19T02:47:28.723Z,4.37
2023-04-19T02:51:30.698Z,4.31
2023-04-19T02:55:32.361Z,4.37
2023-04-19T02:59:33.825Z,4.33
2023-04-19T03:03:35.459Z,4.33
2023-04-19T03:07:37.116Z,4.23
2023-04-19T03:11:38.670Z,4.18
2023-04-19T03:15:40.237Z,4.23
2023-04-19T03:19:41.730Z,4.25
2023-04-19T03:23:43.156Z,4.09
2023-04-19T03:27:45.541Z,4.18
2023-04-19T03:31:47.818Z,4.19
2023-04-19T03:35:49.237Z,4.11
2023-04-19T03:39:50.643Z,3.98
2023-04-19T03:43:52.447Z,3.96
2023-04-19T03:47:53.872Z,3.83
2023-04-19T03:51:55.367Z,3.93
2023-04-19T03:55:56.799Z,3.85
2023-04-19T03:59:58.398Z,3.81
2023-04-19T04:04:02.310Z,3.72
2023-04-19T04:08:05.611Z,3.86
2023-04-19T04:12:07.162Z,3.86
2023-04-19T04:16:08.789Z,3.68
2023-04-19T04:20:11.835Z,3.68
2023-04-19T04:24:13.853Z,3.75
2023-04-19T04:28:15.825Z,3.66
2023-04-19T04:32:18.078Z,3.70
2023-04-19T04:36:20.491Z,3.63
2023-04-19T04:40:22.108Z,3.73
2023-04-19T04:44:24.742Z,3.76
2023-04-19T04:48:26.487Z,3.77
2023-04-19T04:52:28.378Z,3.75
2023-04-19T04:56:30.896Z,3.77
2023-04-19T05:00:32.753Z,3.77
2023-04-19T05:04:34.260Z,3.82
2023-04-19T05:08:35.729Z,3.91
2023-04-19T05:12:38.030Z,3.94
2023-04-19T05:16:39.917Z,3.84
2023-04-19T05:20:41.560Z,3.91
2023-04-19T05:24:43.093Z,4.01
2023-04-19T05:28:44.962Z,4.10
2023-04-19T05:32:46.906Z,4.11
2023-04-19T05:36:48.364Z,4.25
2023-04-19T05:40:49.768Z,4.20
2023-04-19T05:44:51.253Z,4.31
2023-04-19T05:48:53.016Z,4.72
2023-04-19T05:52:54.488Z,4.65
2023-04-19T05:56:56.179Z,4.52
2023-04-19T06:00:57.601Z,4.68
2023-04-19T06:05:02.423Z,4.67
2023-04-19T06:09:07.237Z,4.73
2023-04-19T06:13:08.710Z,4.71
2023-04-19T06:17:10.192Z,4.82
2023-04-19T06:21:11.688Z,4.95
2023-04-19T06:25:13.347Z,5.14
2023-04-19T06:29:14.777Z,5.17
2023-04-19T06:33:16.441Z,5.38
2023-04-19T06:37:17.911Z,5.45
2023-04-19T06:41:19.406Z,5.38
2023-04-19T06:45:21.079Z,5.80
2023-04-19T06:49:22.709Z,5.74
2023-04-19T06:53:24.453Z,5.90
2023-04-19T06:57:26.049Z,6.12
2023-04-19T07:01:27.527Z,6.27
2023-04-19T07:05:30.639Z,6.41
2023-04-19T07:09:32.209Z,6.45
2023-04-19T07:13:33.626Z,6.64
2023-04-19T07:17:36.631Z,6.85
2023-04-19T07:21:39.456Z,7.08
2023-04-19T07:25:40.930Z,7.13
2023-04-19T07:29:42.340Z,7.36
2023-04-19T07:33:44.424Z,7.57
2023-04-19T07:37:45.910Z,7.78
2023-04-19T07:41:47.447Z,8.02
2023-04-19T07:45:48.942Z,8.12
2023-04-19T07:49:53.624Z,8.36
2023-04-19T07:53:55.134Z,8.73
2023-04-19T07:57:56.594Z,8.99
2023-04-19T08:01:58.137Z,9.31
2023-04-19T08:06:07.134Z,9.40
2023-04-19T08:10:09.615Z,9.61
2023-04-19T08:14:27.110Z,9.57
2023-04-19T08:18:36.155Z,9.58
2023-04-19T08:22:39.081Z,9.67
2023-04-19T08:26:40.810Z,9.98
2023-04-19T08:30:42.332Z,10.13
2023-04-19T08:34:43.832Z,10.27
2023-04-19T08:38:49.171Z,10.16
2023-04-19T08:42:57.065Z,10.15
2023-04-19T08:47:01.452Z,10.20
2023-04-19T08:51:05.765Z,10.57
2023-04-19T08:55:08.748Z,11.04
2023-04-19T08:59:18.014Z,10.79
2023-04-19T09:03:19.971Z,10.79
2023-04-19T09:07:26.499Z,10.86
2023-04-19T09:11:40.902Z,10.93
2023-04-19T09:15:44.568Z,11.14
2023-04-19T09:19:50.315Z,11.93
2023-04-19T09:23:51.926Z,11.99
2023-04-19T09:27:54.863Z,11.96
2023-04-19T09:31:58.812Z,11.61
2023-04-19T09:36:03.237Z,12.08
2023-04-19T09:40:25.034Z,12.51
2023-04-19T09:48:31.086Z,12.13
2023-04-19T09:52:34.800Z,12.05
2023-04-19T09:56:37.077Z,11.40
2023-04-19T10:00:47.783Z,12.33
2023-04-19T10:09:02.515Z,11.73
2023-04-19T10:13:19.317Z,12.52
2023-04-19T10:17:23.094Z,12.35
2023-04-19T10:21:27.353Z,12.81
2023-04-19T10:25:30.694Z,12.69
2023-04-19T10:29:57.762Z,13.57
2023-04-19T10:33:59.322Z,12.80
2023-04-19T10:38:12.844Z,12.74
2023-04-19T10:42:14.313Z,12.55
2023-04-19T10:46:16.798Z,12.62
2023-04-19T10:50:18.602Z,13.32
2023-04-19T10:54:31.192Z,13.63
2023-04-19T10:59:01.882Z,13.24
2023-04-19T11:03:44.812Z,12.71
2023-04-19T11:07:46.352Z,12.28
2023-04-19T11:11:47.821Z,12.45
2023-04-19T11:15:49.325Z,13.16
2023-04-19T11:20:07.148Z,13.34
2023-04-19T11:24:14.549Z,12.73
2023-04-19T11:28:17.512Z,12.81
2023-04-19T11:32:21.475Z,13.17
2023-04-19T11:36:22.960Z,13.12
2023-04-19T11:40:28.300Z,13.57
2023-04-19T11:44:30.775Z,13.18
2023-04-19T11:48:32.745Z,13.03
2023-04-19T11:52:35.481Z,13.08
2023-04-19T11:56:36.961Z,13.36
2023-04-19T12:00:38.583Z,13.06
2023-04-19T12:04:41.093Z,12.61
2023-04-19T12:08:48.222Z,12.44
2023-04-19T12:12:49.619Z,12.40
2023-04-19T12:17:10.800Z,12.94
2023-04-19T12:21:25.309Z,13.25
2023-04-19T12:25:31.276Z,13.69
2023-04-19T12:29:33.885Z,13.85
2023-04-19T12:33:35.404Z,12.81
2023-04-19T12:37:37.044Z,12.30
2023-04-19T12:41:38.646Z,12.46
2023-04-19T12:45:40.126Z,12.63
2023-04-19T12:49:41.624Z,12.34
2023-04-19T12:53:48.033Z,12.66
2023-04-19T12:57:49.587Z,12.75
2023-04-19T13:01:51.106Z,12.63
2023-04-19T13:05:52.522Z,12.68
2023-04-19T13:09:56.532Z,12.71
2023-04-19T13:13:58.398Z,12.75
2023-04-19T13:17:59.843Z,13.05
2023-04-19T13:22:01.347Z,12.44
2023-04-19T13:26:02.801Z,12.61
2023-04-19T13:30:04.680Z,13.01
2023-04-19T13:34:06.307Z,12.65
2023-04-19T13:38:07.778Z,12.60
2023-04-19T13:42:09.720Z,12.23
2023-04-19T13:46:11.473Z,12.02
2023-04-19T13:50:13.648Z,11.75
2023-04-19T13:54:17.558Z,11.77
2023-04-19T13:58:19.506Z,11.76
2023-04-19T14:02:21.255Z,11.67
2023-04-19T14:06:22.912Z,11.47
2023-04-19T14:10:24.433Z,11.41
2023-04-19T14:14:26.457Z,11.15
2023-04-19T14:18:27.943Z,10.94
2023-04-19T14:22:29.373Z,10.34
2023-04-19T14:26:30.835Z,10.33
2023-04-19T14:30:32.335Z,10.49
2023-04-19T14:34:33.864Z,10.74
2023-04-19T14:38:35.488Z,10.50
2023-04-19T14:42:36.928Z,10.47
2023-04-19T14:46:38.387Z,10.37
2023-04-19T14:50:39.785Z,10.54
2023-04-19T14:54:41.838Z,10.38
2023-04-19T14:58:43.296Z,10.66
2023-04-19T18:25:56.232Z,5.87
2023-04-19T18:29:57.679Z,5.77
2023-04-19T18:33:59.841Z,5.72
2023-04-19T18:38:01.623Z,5.70
2023-04-19T18:42:03.229Z,5.61
2023-04-19T18:46:04.768Z,5.45
2023-04-19T18:50:08.406Z,5.63
2023-04-19T18:54:09.884Z,5.69
2023-04-19T18:58:11.924Z,5.75
2023-04-19T19:02:13.431Z,5.62
2023-04-19T19:06:15.097Z,5.78
2023-04-19T19:10:20.904Z,5.79
2023-04-19T19:14:24.239Z,5.92
2023-04-19T19:18:27.682Z,5.81
2023-04-19T19:22:29.301Z,5.68
2023-04-19T19:26:31.363Z,5.84
2023-04-19T19:30:33.831Z,5.84
2023-04-19T19:34:47.531Z,5.98
2023-04-19T19:38:55.883Z,5.93
2023-04-19T19:42:57.394Z,5.78
2023-04-19T19:46:58.970Z,6.02
2023-04-19T19:51:31.327Z,6.21
2023-04-19T19:55:23.604Z,6.12
2023-04-19T19:59:30.280Z,6.00
2023-04-19T20:03:37.359Z,6.05
2023-04-19T20:08:00.530Z,6.01
2023-04-19T20:12:02.570Z,5.98
2023-04-19T20:16:04.172Z,6.02
2023-04-19T20:20:08.820Z,5.96
2023-04-19T20:24:10.314Z,6.00
2023-04-19T20:28:12.488Z,6.04
2023-04-19T20:32:14.086Z,6.08
2023-04-19T20:36:16.331Z,5.78
2023-04-19T20:40:18.486Z,6.10
2023-04-19T20:44:22.971Z,6.10
2023-04-19T20:48:24.490Z,6.11
2023-04-19T20:52:26.100Z,5.82
2023-04-19T20:56:27.664Z,6.06
2023-04-19T21:00:29.140Z,6.11
2023-04-19T21:04:30.793Z,6.05
2023-04-19T21:08:32.285Z,5.91
2023-04-19T21:12:34.657Z,6.03
2023-04-19T21:16:36.208Z,6.13
2023-04-19T21:20:37.939Z,6.06
2023-04-19T21:24:42.186Z,6.62
2023-04-19T21:28:43.778Z,7.02
2023-04-19T21:32:45.388Z,6.48
2023-04-19T21:36:46.878Z,6.38
2023-04-19T21:40:49.413Z,5.99
2023-04-19T21:44:50.891Z,5.98
2023-04-19T21:48:54.377Z,6.01
2023-04-19T21:52:57.332Z,6.15
2023-04-19T21:56:59.366Z,6.01
2023-04-19T22:01:01.138Z,5.92
2023-04-19T22:05:04.869Z,5.94
2023-04-19T22:09:06.917Z,5.99
2023-04-19T22:13:08.660Z,5.94
2023-04-19T22:17:16.397Z,5.99
2023-04-19T22:21:17.822Z,5.95
2023-04-19T22:25:19.350Z,5.91
2023-04-19T22:29:20.992Z,6.11
2023-04-19T22:33:22.454Z,6.12
2023-04-19T22:37:24.172Z,6.18
2023-04-19T22:41:25.688Z,6.00
2023-04-19T22:45:27.190Z,6.17
2023-04-19T22:49:29.693Z,5.94
2023-04-19T22:53:31.168Z,5.89
2023-04-19T22:57:32.663Z,5.91
2023-04-19T23:01:34.906Z,5.99
2023-04-19T23:05:36.389Z,6.10
2023-04-19T23:09:39.186Z,6.14
2023-04-19T23:13:43.957Z,6.15
2023-04-19T23:17:45.403Z,6.06
2023-04-19T23:21:46.903Z,6.15
2023-04-19T23:25:48.687Z,6.06
2023-04-19T23:29:50.186Z,6.01
2023-04-19T23:33:51.618Z,5.91
2023-04-19T23:37:53.129Z,5.96
2023-04-19T23:41:54.613Z,5.91
2023-04-19T23:45:57.222Z,5.88
2023-04-19T23:49:58.686Z,6.06
2023-04-19T23:54:00.259Z,6.12
2023-04-19T23:58:01.656Z,6.13
